createdAt,value
2019-04-01T00:00:21.668Z,6.30
2019-04-01T00:03:39.686Z,6.30
2019-04-01T00:06:44.991Z,6.20
2019-04-01T00:09:58.026Z,6.10
2019-04-01T00:13:05.256Z,6.20
2019-04-01T00:16:11.582Z,6.10
2019-04-01T00:23:08.795Z,6.00
2019-04-01T00:26:15.142Z,6.00
2019-04-01T00:29:29.841Z,6.00
2019-04-01T00:32:40.294Z,6.00
2019-04-01T00:35:51.454Z,5.90
2019-04-01T00:38:56.722Z,5.70
2019-04-01T00:42:10.489Z,5.80
2019-04-01T00:45:36.564Z,5.80
2019-04-01T00:48:44.345Z,5.70
2019-04-01T00:51:53.230Z,5.70
2019-04-01T00:54:59.455Z,5.70
2019-04-01T00:58:12.491Z,5.50
2019-04-01T01:01:17.742Z,5.30
2019-04-01T01:05:21.836Z,5.20
2019-04-01T01:08:23.334Z,5.20
2019-04-01T01:17:20.656Z,5.20
2019-04-01T01:20:38.538Z,5.10
2019-04-01T01:23:47.341Z,5.00
2019-04-01T01:26:58.276Z,5.00
2019-04-01T01:30:05.414Z,4.90
2019-04-01T01:33:17.629Z,4.80
2019-04-01T01:36:24.757Z,4.70
2019-04-01T01:39:36.954Z,4.60
2019-04-01T01:46:31.674Z,4.50
2019-04-01T01:49:37.629Z,4.50
2019-04-01T01:52:42.330Z,4.60
2019-04-01T01:55:55.134Z,4.60
2019-04-01T01:59:06.225Z,4.60
2019-04-01T02:02:17.381Z,4.50
2019-04-01T02:05:28.662Z,4.50
2019-04-01T02:08:39.773Z,4.50
2019-04-01T02:11:45.071Z,4.50
2019-04-01T02:14:55.390Z,4.50
2019-04-01T02:18:05.122Z,4.50
2019-04-01T02:21:10.652Z,4.40
2019-04-01T02:24:19.670Z,4.30
2019-04-01T02:27:25.992Z,4.30
2019-04-01T02:34:27.078Z,4.20
2019-04-01T02:40:57.361Z,4.00
2019-04-01T02:44:14.062Z,4.00
2019-04-01T02:47:18.442Z,4.00
2019-04-01T02:50:32.669Z,3.90
2019-04-01T02:53:45.419Z,3.80
2019-04-01T02:56:52.135Z,3.80
2019-04-01T03:00:04.575Z,3.80
2019-04-01T03:03:15.598Z,3.70
2019-04-01T03:06:20.855Z,3.60
2019-04-01T03:09:29.705Z,3.70
2019-04-01T03:12:41.943Z,3.60
2019-04-01T03:15:53.207Z,3.60
2019-04-01T03:19:00.382Z,3.60
2019-04-01T03:22:12.618Z,3.50
2019-04-01T03:25:18.027Z,3.50
2019-04-01T03:28:28.975Z,3.50
2019-04-01T04:37:04.415Z,3.00
2019-04-01T04:40:06.474Z,3.00
2019-04-01T04:43:12.773Z,3.00
2019-04-01T04:46:22.299Z,3.00
2019-04-01T04:49:28.061Z,3.00
2019-04-01T04:52:34.890Z,2.90
2019-04-01T04:55:41.779Z,2.90
2019-04-01T04:58:50.714Z,2.90
2019-04-01T05:01:57.226Z,2.90
2019-04-01T05:05:04.714Z,2.80
2019-04-01T05:08:11.414Z,2.70
2019-04-01T05:11:18.364Z,2.70
2019-04-01T05:14:25.418Z,2.70
2019-04-01T05:17:32.410Z,2.70
2019-04-01T05:20:39.451Z,2.80
2019-04-01T05:35:39.943Z,2.80
2019-04-01T06:17:50.643Z,4.80
2019-04-01T06:20:53.046Z,4.90
2019-04-01T07:03:14.555Z,6.90
2019-04-01T07:06:25.138Z,7.00
2019-04-01T07:09:29.985Z,7.10
2019-04-01T07:12:36.835Z,7.30
2019-04-01T07:15:43.807Z,7.50
2019-04-01T07:58:02.084Z,9.30
2019-04-01T08:01:04.494Z,9.30
2019-04-01T08:04:11.282Z,9.60
2019-04-01T08:07:18.134Z,9.60
2019-04-01T08:10:25.254Z,9.70
2019-04-01T08:13:34.347Z,9.70
2019-04-01T08:16:40.794Z,9.60
2019-04-01T08:46:05.441Z,10.10
2019-04-01T08:49:09.024Z,10.20
2019-04-01T08:52:14.771Z,10.20
2019-04-01T08:55:23.581Z,10.40
2019-04-01T08:58:30.086Z,10.80
2019-04-01T09:01:37.314Z,11.10
2019-04-01T09:04:44.496Z,11.20
2019-04-01T09:07:53.771Z,11.30
2019-04-01T09:11:00.275Z,11.50
2019-04-01T09:53:18.705Z,13.40
2019-04-01T09:56:21.346Z,13.70
2019-04-01T09:59:27.988Z,14.00
2019-04-01T10:02:35.014Z,14.00
2019-04-01T10:06:41.018Z,14.30
2019-04-01T10:09:51.750Z,14.30
2019-04-01T10:12:56.407Z,14.70
2019-04-01T10:16:10.666Z,14.60
2019-04-01T10:21:11.503Z,14.70
2019-04-01T10:24:19.788Z,14.90
2019-04-01T10:27:24.547Z,14.90
2019-04-01T10:30:31.623Z,15.10
2019-04-01T10:33:38.806Z,15.40
2019-04-01T10:38:42.114Z,16.00
2019-04-01T10:41:47.051Z,15.90
2019-04-01T10:44:53.938Z,15.60
2019-04-01T10:48:00.924Z,15.70
2019-04-01T10:51:27.365Z,15.90
2019-04-01T10:54:42.127Z,15.90
2019-04-01T10:57:54.697Z,16.50
2019-04-01T11:00:59.822Z,15.90
2019-04-01T11:04:07.091Z,15.60
2019-04-01T11:07:18.559Z,16.20
2019-04-01T11:10:31.806Z,16.40
2019-04-01T11:13:36.974Z,16.80
2019-04-01T11:17:43.922Z,16.60
2019-04-01T11:20:45.887Z,16.60
2019-04-01T11:23:53.078Z,17.20
2019-04-01T11:27:07.728Z,16.50
2019-04-01T11:30:27.123Z,16.00
2019-04-01T11:33:35.350Z,16.50
2019-04-01T11:36:48.484Z,16.40
2019-04-01T11:39:53.735Z,16.30
2019-04-01T11:43:08.228Z,16.90
2019-04-01T11:46:14.075Z,17.60
2019-04-01T11:49:21.266Z,17.70
2019-04-01T12:02:33.962Z,18.00
2019-04-01T12:09:23.694Z,17.00
2019-04-01T12:16:13.215Z,17.30
2019-04-01T12:19:13.667Z,17.40
2019-04-01T12:28:15.214Z,17.70
2019-04-01T12:33:19.491Z,18.70
2019-04-01T12:39:42.881Z,17.70
2019-04-01T12:43:18.606Z,18.30
2019-04-01T12:46:25.326Z,18.30
2019-04-01T12:49:39.542Z,18.50
2019-04-01T12:53:13.026Z,17.30
2019-04-01T12:56:15.582Z,16.80
2019-04-01T12:59:22.752Z,17.50
2019-04-01T13:02:30.671Z,18.20
2019-04-01T13:06:36.071Z,18.00
2019-04-01T13:09:37.942Z,18.40
2019-04-01T13:13:49.965Z,17.80
2019-04-01T13:16:53.763Z,17.60
2019-04-01T13:19:59.990Z,18.10
2019-04-01T13:25:06.827Z,17.70
2019-04-01T13:28:11.786Z,17.60
2019-04-01T13:31:21.230Z,17.20
2019-04-01T13:34:27.054Z,17.30
2019-04-01T13:37:46.765Z,17.30
2019-04-01T13:40:51.246Z,17.60
2019-04-01T13:43:58.474Z,17.40
2019-04-01T13:47:21.514Z,17.50
2019-04-01T13:50:25.340Z,17.40
2019-04-01T13:53:39.728Z,17.40
2019-04-01T13:56:51.962Z,17.50
2019-04-01T14:00:01.134Z,17.40
2019-04-01T14:03:07.107Z,17.30
2019-04-01T14:06:16.636Z,17.30
2019-04-01T14:09:23.834Z,17.30
2019-04-01T14:12:31.190Z,17.60
2019-04-01T14:15:38.450Z,17.40
2019-04-01T14:18:52.987Z,17.30
2019-04-01T14:21:58.121Z,17.10
2019-04-01T14:25:19.822Z,17.40
2019-04-01T14:28:27.302Z,17.10
2019-04-01T14:31:33.194Z,17.20
2019-04-01T14:38:35.430Z,17.30
2019-04-01T14:41:37.937Z,18.10
2019-04-01T14:44:48.726Z,17.80
2019-04-01T14:48:09.886Z,17.60
2019-04-01T14:51:14.655Z,17.60
2019-04-01T14:54:29.049Z,17.70
2019-04-01T14:57:34.478Z,17.90
2019-04-01T15:00:41.638Z,17.30
2019-04-01T15:03:55.810Z,17.00
2019-04-01T15:08:56.208Z,16.90
2019-04-01T15:12:25.491Z,17.20
2019-04-01T15:15:27.902Z,17.00
2019-04-01T15:18:42.102Z,16.70
2019-04-01T15:21:48.603Z,16.60
2019-04-01T15:24:55.106Z,16.60
2019-04-01T15:28:03.398Z,16.40
2019-04-01T15:33:08.118Z,16.40
2019-04-01T15:36:09.114Z,16.40
2019-04-01T15:39:19.067Z,15.90
2019-04-01T15:42:25.710Z,15.80
2019-04-01T15:45:32.858Z,16.00
2019-04-01T15:50:38.250Z,15.90
2019-04-01T15:57:07.279Z,15.80
2019-04-01T16:00:14.370Z,15.90
2019-04-01T16:03:26.694Z,15.70
2019-04-01T16:06:37.199Z,15.60
2019-04-01T16:09:43.030Z,15.50
2019-04-01T16:18:40.262Z,15.40
2019-04-01T16:29:31.406Z,15.20
2019-04-01T16:36:20.986Z,15.20
2019-04-01T16:39:35.365Z,14.80
2019-04-01T16:46:29.238Z,14.60
2019-04-01T16:51:13.946Z,14.20
2019-04-01T16:58:05.634Z,14.00
2019-04-01T17:01:06.129Z,13.80
2019-04-01T17:36:56.651Z,12.60
2019-04-01T17:40:08.450Z,12.50
2019-04-01T17:43:16.234Z,12.20
2019-04-01T17:46:21.987Z,12.00
2019-04-01T18:15:45.508Z,11.10
2019-04-01T18:18:48.060Z,11.00
2019-04-01T18:21:54.578Z,10.90
2019-04-01T19:04:13.137Z,10.20
2019-04-01T19:46:29.003Z,9.80
2019-04-01T20:15:46.128Z,9.30
2019-04-01T20:18:48.214Z,9.30
2019-04-01T20:41:40.905Z,8.90
2019-04-01T20:44:45.314Z,8.80
2019-04-01T20:47:51.512Z,8.80
2019-04-01T20:51:02.146Z,8.80
2019-04-01T20:54:13.762Z,8.70
2019-04-01T20:57:28.162Z,8.70
2019-04-01T21:00:33.114Z,8.50
2019-04-01T21:42:52.455Z,8.50
2019-04-01T21:45:54.623Z,8.40
2019-04-01T22:15:14.575Z,8.20
2019-04-01T22:18:26.943Z,8.20
2019-04-01T22:21:35.715Z,8.10
2019-04-01T22:26:35.590Z,8.10
2019-04-01T22:29:36.330Z,8.10
2019-04-01T22:32:47.027Z,8.10
2019-04-01T22:43:43.634Z,8.10
2019-04-01T22:46:48.906Z,7.90
2019-04-01T22:50:04.705Z,7.80
2019-04-01T22:53:17.001Z,7.70
2019-04-01T23:00:10.910Z,7.50
2019-04-01T23:03:12.366Z,7.40
2019-04-01T23:08:14.079Z,7.30
2019-04-01T23:11:14.771Z,7.30
2019-04-01T23:20:12.974Z,7.30
2019-04-01T23:23:12.743Z,7.10
2019-04-01T23:26:19.102Z,7.10
2019-04-01T23:29:26.120Z,7.00
2019-04-01T23:36:23.679Z,7.00
2019-04-01T23:39:27.811Z,7.00
2019-04-01T23:46:23.742Z,6.90
2019-04-01T23:49:23.618Z,6.70
2019-04-01T23:52:32.134Z,6.70
2019-04-01T23:55:38.942Z,6.70
2019-04-01T23:58:45.822Z,6.70
